sensor_id;sensor_type;location;lat;lon;timestamp;P1;durP1;ratioP1;P2;durP2;ratioP2
2944;SDS011;1482;51.398;7.128;2022-12-22T00:00:09;7.10;;;5.57;;
2944;SDS011;1482;51.398;7.128;2022-12-22T00:02:55;7.53;;;6.00;;
2944;SDS011;1482;51.398;7.128;2022-12-22T00:05:39;5.80;;;5.17;;
2944;SDS011;1482;51.398;7.128;2022-12-22T00:08:23;5.03;;;4.60;;
2944;SDS011;1482;51.398;7.128;2022-12-22T00:11:11;7.30;;;5.40;;
2944;SDS011;1482;51.398;7.128;2022-12-22T00:13:55;7.53;;;5.27;;
2944;SDS011;1482;51.398;7.128;2022-12-22T00:16:40;6.40;;;5.27;;
2944;SDS011;1482;51.398;7.128;2022-12-22T00:19:24;16.83;;;5.83;;
2944;SDS011;1482;51.398;7.128;2022-12-22T00:22:14;6.70;;;5.90;;
2944;SDS011;1482;51.398;7.128;2022-12-22T00:25:04;5.90;;;5.40;;
2944;SDS011;1482;51.398;7.128;2022-12-22T00:27:48;7.37;;;4.90;;
2944;SDS011;1482;51.398;7.128;2022-12-22T00:30:32;5.37;;;4.87;;
2944;SDS011;1482;51.398;7.128;2022-12-22T00:33:17;5.80;;;5.20;;
2944;SDS011;1482;51.398;7.128;2022-12-22T00:36:03;7.77;;;4.80;;
2944;SDS011;1482;51.398;7.128;2022-12-22T00:38:52;5.37;;;4.87;;
2944;SDS011;1482;51.398;7.128;2022-12-22T00:41:36;8.63;;;4.13;;
2944;SDS011;1482;51.398;7.128;2022-12-22T00:44:20;4.30;;;3.90;;
2944;SDS011;1482;51.398;7.128;2022-12-22T00:47:04;4.57;;;4.17;;
2944;SDS011;1482;51.398;7.128;2022-12-22T00:49:52;4.10;;;3.80;;
2944;SDS011;1482;51.398;7.128;2022-12-22T00:52:36;4.40;;;4.10;;
2944;SDS011;1482;51.398;7.128;2022-12-22T00:55:21;4.00;;;3.70;;
2944;SDS011;1482;51.398;7.128;2022-12-22T00:58:13;4.23;;;3.87;;
2944;SDS011;1482;51.398;7.128;2022-12-22T01:00:59;4.57;;;4.20;;
2944;SDS011;1482;51.398;7.128;2022-12-22T01:03:44;4.37;;;3.97;;
2944;SDS011;1482;51.398;7.128;2022-12-22T01:06:28;3.93;;;3.63;;
2944;SDS011;1482;51.398;7.128;2022-12-22T01:09:14;4.77;;;4.30;;
2944;SDS011;1482;51.398;7.128;2022-12-22T01:12:00;4.43;;;3.90;;
2944;SDS011;1482;51.398;7.128;2022-12-22T01:14:45;4.50;;;4.13;;
2944;SDS011;1482;51.398;7.128;2022-12-22T01:17:29;5.13;;;4.60;;
2944;SDS011;1482;51.398;7.128;2022-12-22T01:20:13;4.33;;;3.93;;
2944;SDS011;1482;51.398;7.128;2022-12-22T01:22:57;4.70;;;4.30;;
2944;SDS011;1482;51.398;7.128;2022-12-22T01:25:41;4.80;;;3.97;;
2944;SDS011;1482;51.398;7.128;2022-12-22T01:28:25;5.03;;;4.10;;
2944;SDS011;1482;51.398;7.128;2022-12-22T01:31:16;4.37;;;4.03;;
2944;SDS011;1482;51.398;7.128;2022-12-22T01:34:07;4.67;;;4.27;;
2944;SDS011;1482;51.398;7.128;2022-12-22T01:36:51;4.73;;;4.33;;
2944;SDS011;1482;51.398;7.128;2022-12-22T01:39:35;4.83;;;4.43;;
2944;SDS011;1482;51.398;7.128;2022-12-22T01:42:19;5.00;;;4.50;;
2944;SDS011;1482;51.398;7.128;2022-12-22T01:45:17;5.83;;;4.47;;
2944;SDS011;1482;51.398;7.128;2022-12-22T01:48:02;3.20;;;3.00;;
2944;SDS011;1482;51.398;7.128;2022-12-22T01:50:46;4.43;;;4.03;;
2944;SDS011;1482;51.398;7.128;2022-12-22T01:53:30;3.40;;;3.10;;
2944;SDS011;1482;51.398;7.128;2022-12-22T01:56:14;2.90;;;2.70;;
2944;SDS011;1482;51.398;7.128;2022-12-22T01:58:59;5.73;;;3.90;;
2944;SDS011;1482;51.398;7.128;2022-12-22T02:01:46;3.60;;;3.30;;
2944;SDS011;1482;51.398;7.128;2022-12-22T02:04:34;4.40;;;4.00;;
2944;SDS011;1482;51.398;7.128;2022-12-22T02:07:25;3.10;;;2.80;;
2944;SDS011;1482;51.398;7.128;2022-12-22T02:10:47;3.17;;;2.97;;
2944;SDS011;1482;51.398;7.128;2022-12-22T02:14:04;4.20;;;3.80;;
2944;SDS011;1482;51.398;7.128;2022-12-22T02:17:17;3.10;;;2.80;;
2944;SDS011;1482;51.398;7.128;2022-12-22T02:24:05;2.50;;;2.30;;
2944;SDS011;1482;51.398;7.128;2022-12-22T02:26:33;3.10;;;2.90;;
2944;SDS011;1482;51.398;7.128;2022-12-22T02:29:25;2.27;;;2.10;;
2944;SDS011;1482;51.398;7.128;2022-12-22T02:32:13;1.93;;;1.83;;
2944;SDS011;1482;51.398;7.128;2022-12-22T02:34:57;2.50;;;2.40;;
2944;SDS011;1482;51.398;7.128;2022-12-22T02:46:59;2.03;;;1.93;;
2944;SDS011;1482;51.398;7.128;2022-12-22T02:50:17;1.93;;;1.40;;
2944;SDS011;1482;51.398;7.128;2022-12-22T02:53:15;3.17;;;2.10;;
2944;SDS011;1482;51.398;7.128;2022-12-22T02:56:03;1.90;;;1.80;;
2944;SDS011;1482;51.398;7.128;2022-12-22T02:58:49;1.50;;;1.40;;
2944;SDS011;1482;51.398;7.128;2022-12-22T03:01:33;2.60;;;1.90;;
2944;SDS011;1482;51.398;7.128;2022-12-22T03:04:17;1.90;;;1.80;;
2944;SDS011;1482;51.398;7.128;2022-12-22T03:07:01;1.90;;;1.80;;
2944;SDS011;1482;51.398;7.128;2022-12-22T03:09:46;2.50;;;2.27;;
2944;SDS011;1482;51.398;7.128;2022-12-22T03:12:30;2.40;;;2.17;;
2944;SDS011;1482;51.398;7.128;2022-12-22T03:15:14;2.07;;;1.97;;
2944;SDS011;1482;51.398;7.128;2022-12-22T03:18:01;4.33;;;2.30;;
2944;SDS011;1482;51.398;7.128;2022-12-22T03:20:47;1.60;;;1.50;;
2944;SDS011;1482;51.398;7.128;2022-12-22T03:23:31;1.87;;;1.60;;
2944;SDS011;1482;51.398;7.128;2022-12-22T03:26:15;1.80;;;1.70;;
2944;SDS011;1482;51.398;7.128;2022-12-22T03:28:40;1.63;;;1.53;;
2944;SDS011;1482;51.398;7.128;2022-12-22T03:31:06;1.80;;;1.70;;
2944;SDS011;1482;51.398;7.128;2022-12-22T03:33:32;10.60;;;1.67;;
2944;SDS011;1482;51.398;7.128;2022-12-22T03:35:58;1.37;;;1.27;;
2944;SDS011;1482;51.398;7.128;2022-12-22T03:38:23;1.17;;;1.07;;
2944;SDS011;1482;51.398;7.128;2022-12-22T03:40:49;1.60;;;1.50;;
2944;SDS011;1482;51.398;7.128;2022-12-22T03:43:15;1.40;;;1.20;;
2944;SDS011;1482;51.398;7.128;2022-12-22T03:46:00;2.43;;;1.90;;
2944;SDS011;1482;51.398;7.128;2022-12-22T03:48:45;3.33;;;3.03;;
2944;SDS011;1482;51.398;7.128;2022-12-22T03:51:34;1.67;;;1.57;;
2944;SDS011;1482;51.398;7.128;2022-12-22T03:54:01;1.30;;;1.20;;
2944;SDS011;1482;51.398;7.128;2022-12-22T03:56:27;1.40;;;1.30;;
2944;SDS011;1482;51.398;7.128;2022-12-22T03:58:53;2.60;;;1.33;;
2944;SDS011;1482;51.398;7.128;2022-12-22T04:01:18;1.53;;;1.40;;
2944;SDS011;1482;51.398;7.128;2022-12-22T04:03:44;1.23;;;1.13;;
2944;SDS011;1482;51.398;7.128;2022-12-22T04:06:09;1.13;;;1.03;;
2944;SDS011;1482;51.398;7.128;2022-12-22T04:08:35;1.27;;;1.17;;
2944;SDS011;1482;51.398;7.128;2022-12-22T04:11:01;0.90;;;0.80;;
2944;SDS011;1482;51.398;7.128;2022-12-22T04:13:45;0.90;;;0.80;;
2944;SDS011;1482;51.398;7.128;2022-12-22T04:16:10;1.90;;;0.80;;
2944;SDS011;1482;51.398;7.128;2022-12-22T04:18:36;1.07;;;0.97;;
2944;SDS011;1482;51.398;7.128;2022-12-22T04:21:01;1.77;;;1.00;;
2944;SDS011;1482;51.398;7.128;2022-12-22T04:23:27;1.60;;;1.50;;
2944;SDS011;1482;51.398;7.128;2022-12-22T04:25:52;1.53;;;1.30;;
2944;SDS011;1482;51.398;7.128;2022-12-22T04:28:18;1.07;;;0.97;;
2944;SDS011;1482;51.398;7.128;2022-12-22T04:30:44;1.20;;;1.03;;
2944;SDS011;1482;51.398;7.128;2022-12-22T04:33:09;2.23;;;0.90;;
2944;SDS011;1482;51.398;7.128;2022-12-22T04:35:35;1.87;;;1.47;;
2944;SDS011;1482;51.398;7.128;2022-12-22T04:38:00;2.43;;;1.07;;
2944;SDS011;1482;51.398;7.128;2022-12-22T04:40:26;1.07;;;0.97;;
2944;SDS011;1482;51.398;7.128;2022-12-22T04:42:51;1.10;;;0.90;;
2944;SDS011;1482;51.398;7.128;2022-12-22T04:45:17;1.23;;;1.13;;
2944;SDS011;1482;51.398;7.128;2022-12-22T04:47:42;3.73;;;1.50;;
2944;SDS011;1482;51.398;7.128;2022-12-22T04:50:08;1.47;;;1.13;;
2944;SDS011;1482;51.398;7.128;2022-12-22T04:52:33;2.10;;;1.10;;
2944;SDS011;1482;51.398;7.128;2022-12-22T04:54:59;2.40;;;1.40;;
2944;SDS011;1482;51.398;7.128;2022-12-22T04:57:25;1.20;;;1.10;;
2944;SDS011;1482;51.398;7.128;2022-12-22T04:59:50;1.43;;;1.33;;
2944;SDS011;1482;51.398;7.128;2022-12-22T05:02:16;1.50;;;1.17;;
2944;SDS011;1482;51.398;7.128;2022-12-22T05:04:41;1.80;;;0.90;;
2944;SDS011;1482;51.398;7.128;2022-12-22T05:07:07;1.03;;;0.93;;
2944;SDS011;1482;51.398;7.128;2022-12-22T05:09:32;1.67;;;0.83;;
2944;SDS011;1482;51.398;7.128;2022-12-22T05:11:58;0.90;;;0.80;;
2944;SDS011;1482;51.398;7.128;2022-12-22T05:14:24;1.10;;;1.00;;
2944;SDS011;1482;51.398;7.128;2022-12-22T05:16:49;1.57;;;0.80;;
2944;SDS011;1482;51.398;7.128;2022-12-22T05:19:15;1.30;;;1.20;;
2944;SDS011;1482;51.398;7.128;2022-12-22T05:21:41;1.07;;;0.97;;
2944;SDS011;1482;51.398;7.128;2022-12-22T05:24:06;1.23;;;1.10;;
2944;SDS011;1482;51.398;7.128;2022-12-22T05:26:32;2.33;;;0.80;;
2944;SDS011;1482;51.398;7.128;2022-12-22T05:28:57;3.60;;;1.10;;
2944;SDS011;1482;51.398;7.128;2022-12-22T05:31:23;2.40;;;1.20;;
2944;SDS011;1482;51.398;7.128;2022-12-22T05:33:50;2.70;;;1.43;;
2944;SDS011;1482;51.398;7.128;2022-12-22T05:36:16;1.43;;;1.33;;
2944;SDS011;1482;51.398;7.128;2022-12-22T05:38:42;2.30;;;1.77;;
2944;SDS011;1482;51.398;7.128;2022-12-22T05:41:10;1.70;;;1.60;;
2944;SDS011;1482;51.398;7.128;2022-12-22T05:43:36;2.00;;;1.90;;
2944;SDS011;1482;51.398;7.128;2022-12-22T05:46:02;2.10;;;2.00;;
2944;SDS011;1482;51.398;7.128;2022-12-22T05:48:29;2.47;;;2.27;;
2944;SDS011;1482;51.398;7.128;2022-12-22T05:50:54;2.60;;;2.40;;
2944;SDS011;1482;51.398;7.128;2022-12-22T05:53:20;4.03;;;2.70;;
2944;SDS011;1482;51.398;7.128;2022-12-22T05:55:46;3.00;;;2.70;;
2944;SDS011;1482;51.398;7.128;2022-12-22T05:58:11;2.40;;;2.20;;
2944;SDS011;1482;51.398;7.128;2022-12-22T06:00:37;7.70;;;2.87;;
2944;SDS011;1482;51.398;7.128;2022-12-22T06:03:03;2.40;;;2.20;;
2944;SDS011;1482;51.398;7.128;2022-12-22T06:05:28;2.87;;;2.57;;
2944;SDS011;1482;51.398;7.128;2022-12-22T06:07:54;2.47;;;2.27;;
2944;SDS011;1482;51.398;7.128;2022-12-22T06:10:19;6.70;;;2.70;;
2944;SDS011;1482;51.398;7.128;2022-12-22T06:12:45;4.83;;;2.97;;
2944;SDS011;1482;51.398;7.128;2022-12-22T06:15:12;3.00;;;2.30;;
2944;SDS011;1482;51.398;7.128;2022-12-22T06:17:38;2.90;;;2.50;;
2944;SDS011;1482;51.398;7.128;2022-12-22T06:20:04;8.33;;;2.60;;
2944;SDS011;1482;51.398;7.128;2022-12-22T06:22:31;3.20;;;2.90;;
2944;SDS011;1482;51.398;7.128;2022-12-22T06:24:57;2.93;;;2.70;;
2944;SDS011;1482;51.398;7.128;2022-12-22T06:27:23;3.80;;;3.10;;
2944;SDS011;1482;51.398;7.128;2022-12-22T06:29:48;3.03;;;2.60;;
2944;SDS011;1482;51.398;7.128;2022-12-22T06:32:14;2.77;;;2.57;;
2944;SDS011;1482;51.398;7.128;2022-12-22T06:34:40;2.70;;;2.50;;
2944;SDS011;1482;51.398;7.128;2022-12-22T06:37:05;2.87;;;2.57;;
2944;SDS011;1482;51.398;7.128;2022-12-22T06:39:31;3.20;;;3.00;;
2944;SDS011;1482;51.398;7.128;2022-12-22T06:41:56;3.67;;;2.90;;
2944;SDS011;1482;51.398;7.128;2022-12-22T06:44:40;3.10;;;2.90;;
2944;SDS011;1482;51.398;7.128;2022-12-22T06:47:06;2.50;;;2.37;;
2944;SDS011;1482;51.398;7.128;2022-12-22T06:49:32;4.00;;;2.33;;
2944;SDS011;1482;51.398;7.128;2022-12-22T06:51:57;2.13;;;2.03;;
2944;SDS011;1482;51.398;7.128;2022-12-22T06:54:23;2.47;;;2.27;;
2944;SDS011;1482;51.398;7.128;2022-12-22T06:56:49;2.20;;;2.10;;
2944;SDS011;1482;51.398;7.128;2022-12-22T06:59:15;5.10;;;2.50;;
2944;SDS011;1482;51.398;7.128;2022-12-22T07:01:40;3.50;;;3.00;;
2944;SDS011;1482;51.398;7.128;2022-12-22T07:04:06;8.93;;;6.30;;
2944;SDS011;1482;51.398;7.128;2022-12-22T07:06:33;14.10;;;7.30;;
2944;SDS011;1482;51.398;7.128;2022-12-22T07:08:58;17.57;;;8.47;;
2944;SDS011;1482;51.398;7.128;2022-12-22T07:11:25;8.33;;;5.67;;
2944;SDS011;1482;51.398;7.128;2022-12-22T07:13:50;10.17;;;6.77;;
2944;SDS011;1482;51.398;7.128;2022-12-22T07:16:16;11.00;;;7.17;;
2944;SDS011;1482;51.398;7.128;2022-12-22T07:18:41;17.30;;;10.50;;
2944;SDS011;1482;51.398;7.128;2022-12-22T07:21:08;23.60;;;10.60;;
2944;SDS011;1482;51.398;7.128;2022-12-22T07:23:36;20.23;;;9.63;;
2944;SDS011;1482;51.398;7.128;2022-12-22T07:26:03;19.33;;;9.43;;
2944;SDS011;1482;51.398;7.128;2022-12-22T07:28:30;8.57;;;5.97;;
2944;SDS011;1482;51.398;7.128;2022-12-22T07:33:56;5.87;;;5.37;;
2944;SDS011;1482;51.398;7.128;2022-12-22T07:36:22;9.57;;;7.73;;
2944;SDS011;1482;51.398;7.128;2022-12-22T07:38:48;12.50;;;9.37;;
2944;SDS011;1482;51.398;7.128;2022-12-22T07:41:15;15.50;;;10.33;;
2944;SDS011;1482;51.398;7.128;2022-12-22T07:44:01;15.20;;;10.40;;
2944;SDS011;1482;51.398;7.128;2022-12-22T07:46:28;8.87;;;7.97;;
2944;SDS011;1482;51.398;7.128;2022-12-22T07:48:56;9.90;;;8.07;;
2944;SDS011;1482;51.398;7.128;2022-12-22T07:51:40;11.97;;;9.03;;
2944;SDS011;1482;51.398;7.128;2022-12-22T07:54:07;10.70;;;9.03;;
2944;SDS011;1482;51.398;7.128;2022-12-22T07:56:34;12.80;;;10.43;;
2944;SDS011;1482;51.398;7.128;2022-12-22T07:59:00;10.70;;;9.60;;
2944;SDS011;1482;51.398;7.128;2022-12-22T08:01:26;12.83;;;11.43;;
2944;SDS011;1482;51.398;7.128;2022-12-22T08:03:52;12.80;;;9.90;;
2944;SDS011;1482;51.398;7.128;2022-12-22T08:06:17;15.73;;;11.73;;
2944;SDS011;1482;51.398;7.128;2022-12-22T08:08:43;12.53;;;11.27;;
2944;SDS011;1482;51.398;7.128;2022-12-22T08:11:08;13.37;;;11.10;;
2944;SDS011;1482;51.398;7.128;2022-12-22T08:13:34;15.10;;;12.60;;
2944;SDS011;1482;51.398;7.128;2022-12-22T08:16:07;19.43;;;13.33;;
2944;SDS011;1482;51.398;7.128;2022-12-22T08:18:34;17.30;;;13.87;;
2944;SDS011;1482;51.398;7.128;2022-12-22T08:21:01;21.10;;;15.10;;
2944;SDS011;1482;51.398;7.128;2022-12-22T08:23:27;20.67;;;13.67;;
2944;SDS011;1482;51.398;7.128;2022-12-22T08:26:03;18.70;;;13.57;;
2944;SDS011;1482;51.398;7.128;2022-12-22T08:28:31;28.13;;;15.80;;
2944;SDS011;1482;51.398;7.128;2022-12-22T08:31:00;34.83;;;18.00;;
2944;SDS011;1482;51.398;7.128;2022-12-22T08:33:27;32.30;;;17.70;;
2944;SDS011;1482;51.398;7.128;2022-12-22T08:35:53;25.73;;;17.50;;
2944;SDS011;1482;51.398;7.128;2022-12-22T08:38:19;24.63;;;16.23;;
2944;SDS011;1482;51.398;7.128;2022-12-22T08:40:45;25.53;;;16.97;;
2944;SDS011;1482;51.398;7.128;2022-12-22T08:43:12;25.10;;;16.47;;
2944;SDS011;1482;51.398;7.128;2022-12-22T08:45:38;25.10;;;16.50;;
2944;SDS011;1482;51.398;7.128;2022-12-22T08:48:06;21.10;;;13.90;;
2944;SDS011;1482;51.398;7.128;2022-12-22T08:50:32;19.43;;;13.73;;
2944;SDS011;1482;51.398;7.128;2022-12-22T08:53:02;21.20;;;14.03;;
2944;SDS011;1482;51.398;7.128;2022-12-22T08:55:31;22.47;;;15.40;;
2944;SDS011;1482;51.398;7.128;2022-12-22T08:57:57;21.70;;;14.13;;
2944;SDS011;1482;51.398;7.128;2022-12-22T09:00:22;21.00;;;15.23;;
2944;SDS011;1482;51.398;7.128;2022-12-22T09:02:49;27.80;;;14.10;;
2944;SDS011;1482;51.398;7.128;2022-12-22T09:05:14;23.67;;;15.60;;
2944;SDS011;1482;51.398;7.128;2022-12-22T09:07:40;29.10;;;16.60;;
2944;SDS011;1482;51.398;7.128;2022-12-22T09:10:06;25.23;;;16.37;;
2944;SDS011;1482;51.398;7.128;2022-12-22T09:12:33;24.17;;;14.80;;
2944;SDS011;1482;51.398;7.128;2022-12-22T09:14:59;27.40;;;17.33;;
2944;SDS011;1482;51.398;7.128;2022-12-22T09:17:25;25.80;;;15.33;;
2944;SDS011;1482;51.398;7.128;2022-12-22T09:19:50;22.00;;;13.07;;
2944;SDS011;1482;51.398;7.128;2022-12-22T09:22:16;29.70;;;15.90;;
2944;SDS011;1482;51.398;7.128;2022-12-22T09:24:42;28.77;;;17.77;;
2944;SDS011;1482;51.398;7.128;2022-12-22T09:27:08;35.33;;;19.77;;
2944;SDS011;1482;51.398;7.128;2022-12-22T09:29:34;29.97;;;17.90;;
2944;SDS011;1482;51.398;7.128;2022-12-22T09:32:01;30.20;;;18.23;;
2944;SDS011;1482;51.398;7.128;2022-12-22T09:34:27;32.57;;;17.60;;
2944;SDS011;1482;51.398;7.128;2022-12-22T09:36:53;33.60;;;17.23;;
2944;SDS011;1482;51.398;7.128;2022-12-22T09:39:18;36.00;;;20.20;;
2944;SDS011;1482;51.398;7.128;2022-12-22T09:41:48;33.63;;;19.07;;
2944;SDS011;1482;51.398;7.128;2022-12-22T09:46:54;35.80;;;20.33;;
2944;SDS011;1482;51.398;7.128;2022-12-22T09:49:22;32.70;;;21.10;;
2944;SDS011;1482;51.398;7.128;2022-12-22T09:51:48;36.63;;;20.10;;
2944;SDS011;1482;51.398;7.128;2022-12-22T09:54:16;40.17;;;24.00;;
2944;SDS011;1482;51.398;7.128;2022-12-22T09:56:42;42.00;;;23.57;;
2944;SDS011;1482;51.398;7.128;2022-12-22T09:59:12;41.77;;;24.63;;
2944;SDS011;1482;51.398;7.128;2022-12-22T10:07:23;48.40;;;28.63;;
2944;SDS011;1482;51.398;7.128;2022-12-22T10:12:32;37.20;;;23.30;;
2944;SDS011;1482;51.398;7.128;2022-12-22T10:14:58;36.40;;;23.63;;
2944;SDS011;1482;51.398;7.128;2022-12-22T10:17:24;39.47;;;23.73;;
2944;SDS011;1482;51.398;7.128;2022-12-22T10:20:05;34.73;;;20.53;;
2944;SDS011;1482;51.398;7.128;2022-12-22T10:22:48;34.23;;;20.53;;
2944;SDS011;1482;51.398;7.128;2022-12-22T10:27:51;21.00;;;15.40;;
2944;SDS011;1482;51.398;7.128;2022-12-22T10:30:22;22.40;;;13.27;;
2944;SDS011;1482;51.398;7.128;2022-12-22T10:33:02;21.20;;;13.97;;
2944;SDS011;1482;51.398;7.128;2022-12-22T10:41:02;20.70;;;14.20;;
2944;SDS011;1482;51.398;7.128;2022-12-22T10:43:37;23.57;;;14.13;;
2944;SDS011;1482;51.398;7.128;2022-12-22T10:46:10;22.53;;;14.23;;
2944;SDS011;1482;51.398;7.128;2022-12-22T10:48:36;26.57;;;15.20;;
2944;SDS011;1482;51.398;7.128;2022-12-22T10:51:04;22.10;;;14.43;;
2944;SDS011;1482;51.398;7.128;2022-12-22T10:53:39;26.70;;;17.00;;
2944;SDS011;1482;51.398;7.128;2022-12-22T10:56:21;26.47;;;15.50;;
2944;SDS011;1482;51.398;7.128;2022-12-22T10:58:55;28.17;;;15.70;;
2944;SDS011;1482;51.398;7.128;2022-12-22T11:01:37;28.70;;;17.30;;
2944;SDS011;1482;51.398;7.128;2022-12-22T11:04:16;25.37;;;16.10;;
2944;SDS011;1482;51.398;7.128;2022-12-22T11:06:47;27.00;;;16.27;;
2944;SDS011;1482;51.398;7.128;2022-12-22T11:09:12;26.50;;;16.73;;
2944;SDS011;1482;51.398;7.128;2022-12-22T11:11:55;31.20;;;17.23;;
2944;SDS011;1482;51.398;7.128;2022-12-22T11:17:30;23.23;;;16.23;;
2944;SDS011;1482;51.398;7.128;2022-12-22T11:23:19;25.03;;;17.17;;
2944;SDS011;1482;51.398;7.128;2022-12-22T11:29:00;23.13;;;15.47;;
2944;SDS011;1482;51.398;7.128;2022-12-22T11:39:45;25.03;;;16.23;;
2944;SDS011;1482;51.398;7.128;2022-12-22T11:46:13;22.77;;;14.97;;
2944;SDS011;1482;51.398;7.128;2022-12-22T11:48:50;22.63;;;14.83;;
2944;SDS011;1482;51.398;7.128;2022-12-22T11:57:10;37.90;;;24.07;;
2944;SDS011;1482;51.398;7.128;2022-12-22T11:59:47;29.10;;;20.23;;
2944;SDS011;1482;51.398;7.128;2022-12-22T12:07:37;27.47;;;19.50;;
2944;SDS011;1482;51.398;7.128;2022-12-22T12:10:22;32.03;;;21.20;;
2944;SDS011;1482;51.398;7.128;2022-12-22T12:12:53;28.43;;;19.40;;
2944;SDS011;1482;51.398;7.128;2022-12-22T12:15:50;27.53;;;19.43;;
2944;SDS011;1482;51.398;7.128;2022-12-22T12:26:43;20.77;;;15.70;;
2944;SDS011;1482;51.398;7.128;2022-12-22T12:29:16;20.17;;;14.10;;
2944;SDS011;1482;51.398;7.128;2022-12-22T12:32:30;21.80;;;16.70;;
2944;SDS011;1482;51.398;7.128;2022-12-22T12:34:33;22.90;;;13.53;;
2944;SDS011;1482;51.398;7.128;2022-12-22T12:37:07;18.80;;;13.53;;
2944;SDS011;1482;51.398;7.128;2022-12-22T12:40:01;21.03;;;13.80;;
2944;SDS011;1482;51.398;7.128;2022-12-22T12:44:56;28.37;;;18.20;;
2944;SDS011;1482;51.398;7.128;2022-12-22T12:49:54;16.80;;;12.33;;
2944;SDS011;1482;51.398;7.128;2022-12-22T12:57:50;19.50;;;11.70;;
2944;SDS011;1482;51.398;7.128;2022-12-22T13:03:01;18.97;;;12.40;;
2944;SDS011;1482;51.398;7.128;2022-12-22T13:05:34;16.37;;;11.73;;
2944;SDS011;1482;51.398;7.128;2022-12-22T13:08:25;19.23;;;13.00;;
2944;SDS011;1482;51.398;7.128;2022-12-22T13:21:07;20.43;;;12.13;;
2944;SDS011;1482;51.398;7.128;2022-12-22T13:23:42;18.70;;;13.57;;
2944;SDS011;1482;51.398;7.128;2022-12-22T13:26:14;18.60;;;13.73;;
2944;SDS011;1482;51.398;7.128;2022-12-22T13:28:41;23.63;;;13.67;;
2944;SDS011;1482;51.398;7.128;2022-12-22T13:34:34;22.60;;;13.93;;
2944;SDS011;1482;51.398;7.128;2022-12-22T13:37:20;21.53;;;14.30;;
2944;SDS011;1482;51.398;7.128;2022-12-22T13:42:33;18.83;;;15.30;;
2944;SDS011;1482;51.398;7.128;2022-12-22T13:45:10;24.03;;;15.07;;
2944;SDS011;1482;51.398;7.128;2022-12-22T13:47:41;23.00;;;15.53;;
2944;SDS011;1482;51.398;7.128;2022-12-22T13:50:16;22.40;;;14.43;;
2944;SDS011;1482;51.398;7.128;2022-12-22T13:52:50;23.93;;;14.10;;
2944;SDS011;1482;51.398;7.128;2022-12-22T13:55:18;18.37;;;14.90;;
2944;SDS011;1482;51.398;7.128;2022-12-22T13:57:49;33.00;;;22.20;;
2944;SDS011;1482;51.398;7.128;2022-12-22T14:00:23;23.13;;;16.30;;
2944;SDS011;1482;51.398;7.128;2022-12-22T14:02:49;25.70;;;16.50;;
2944;SDS011;1482;51.398;7.128;2022-12-22T14:05:15;26.87;;;19.17;;
2944;SDS011;1482;51.398;7.128;2022-12-22T14:10:43;35.10;;;23.00;;
2944;SDS011;1482;51.398;7.128;2022-12-22T14:13:17;29.27;;;19.67;;
2944;SDS011;1482;51.398;7.128;2022-12-22T14:15:45;22.40;;;14.80;;
2944;SDS011;1482;51.398;7.128;2022-12-22T14:18:14;23.53;;;15.90;;
2944;SDS011;1482;51.398;7.128;2022-12-22T14:20:45;25.37;;;17.13;;
2944;SDS011;1482;51.398;7.128;2022-12-22T14:23:21;28.90;;;16.43;;
2944;SDS011;1482;51.398;7.128;2022-12-22T14:25:57;21.17;;;13.57;;
2944;SDS011;1482;51.398;7.128;2022-12-22T14:30:57;19.00;;;12.93;;
2944;SDS011;1482;51.398;7.128;2022-12-22T14:41:23;18.40;;;12.47;;
2944;SDS011;1482;51.398;7.128;2022-12-22T14:44:12;20.60;;;15.27;;
2944;SDS011;1482;51.398;7.128;2022-12-22T14:47:09;20.73;;;12.57;;
2944;SDS011;1482;51.398;7.128;2022-12-22T14:49:46;17.53;;;11.73;;
2944;SDS011;1482;51.398;7.128;2022-12-22T14:52:15;16.13;;;11.93;;
2944;SDS011;1482;51.398;7.128;2022-12-22T14:54:45;14.83;;;12.50;;
2944;SDS011;1482;51.398;7.128;2022-12-22T14:57:15;18.17;;;12.73;;
2944;SDS011;1482;51.398;7.128;2022-12-22T14:59:59;19.57;;;13.80;;
2944;SDS011;1482;51.398;7.128;2022-12-22T15:02:29;29.57;;;13.93;;
2944;SDS011;1482;51.398;7.128;2022-12-22T15:05:10;20.43;;;13.03;;
2944;SDS011;1482;51.398;7.128;2022-12-22T15:07:47;16.47;;;11.83;;
2944;SDS011;1482;51.398;7.128;2022-12-22T15:10:13;17.17;;;12.27;;
2944;SDS011;1482;51.398;7.128;2022-12-22T15:12:39;18.10;;;13.17;;
2944;SDS011;1482;51.398;7.128;2022-12-22T15:15:11;15.30;;;11.27;;
2944;SDS011;1482;51.398;7.128;2022-12-22T15:17:38;17.27;;;10.63;;
2944;SDS011;1482;51.398;7.128;2022-12-22T15:20:04;21.37;;;13.50;;
2944;SDS011;1482;51.398;7.128;2022-12-22T15:22:30;27.50;;;13.70;;
2944;SDS011;1482;51.398;7.128;2022-12-22T15:24:56;19.83;;;14.23;;
2944;SDS011;1482;51.398;7.128;2022-12-22T15:27:21;18.20;;;12.07;;
2944;SDS011;1482;51.398;7.128;2022-12-22T15:29:47;14.47;;;11.60;;
2944;SDS011;1482;51.398;7.128;2022-12-22T15:32:12;16.20;;;11.63;;
2944;SDS011;1482;51.398;7.128;2022-12-22T15:34:39;29.07;;;14.00;;
2944;SDS011;1482;51.398;7.128;2022-12-22T15:37:04;16.30;;;12.43;;
2944;SDS011;1482;51.398;7.128;2022-12-22T15:39:30;19.80;;;12.07;;
2944;SDS011;1482;51.398;7.128;2022-12-22T15:41:56;16.67;;;12.67;;
2944;SDS011;1482;51.398;7.128;2022-12-22T15:44:21;16.87;;;11.30;;
2944;SDS011;1482;51.398;7.128;2022-12-22T15:46:50;22.73;;;12.67;;
2944;SDS011;1482;51.398;7.128;2022-12-22T15:49:21;15.30;;;12.23;;
2944;SDS011;1482;51.398;7.128;2022-12-22T15:51:51;15.27;;;11.43;;
2944;SDS011;1482;51.398;7.128;2022-12-22T15:54:24;16.67;;;12.90;;
2944;SDS011;1482;51.398;7.128;2022-12-22T15:56:52;22.20;;;15.90;;
2944;SDS011;1482;51.398;7.128;2022-12-22T15:59:19;23.87;;;14.57;;
2944;SDS011;1482;51.398;7.128;2022-12-22T16:01:49;15.67;;;12.00;;
2944;SDS011;1482;51.398;7.128;2022-12-22T16:04:15;18.20;;;12.60;;
2944;SDS011;1482;51.398;7.128;2022-12-22T16:06:41;16.90;;;11.67;;
2944;SDS011;1482;51.398;7.128;2022-12-22T16:09:08;17.90;;;10.93;;
2944;SDS011;1482;51.398;7.128;2022-12-22T16:11:40;16.40;;;11.50;;
2944;SDS011;1482;51.398;7.128;2022-12-22T16:14:08;18.63;;;13.40;;
2944;SDS011;1482;51.398;7.128;2022-12-22T16:16:37;21.07;;;14.13;;
2944;SDS011;1482;51.398;7.128;2022-12-22T16:19:04;38.97;;;21.97;;
2944;SDS011;1482;51.398;7.128;2022-12-22T16:21:30;30.90;;;20.40;;
2944;SDS011;1482;51.398;7.128;2022-12-22T16:23:57;13.40;;;11.20;;
2944;SDS011;1482;51.398;7.128;2022-12-22T16:26:24;14.93;;;11.93;;
2944;SDS011;1482;51.398;7.128;2022-12-22T16:28:50;23.90;;;13.33;;
2944;SDS011;1482;51.398;7.128;2022-12-22T16:31:17;15.23;;;11.77;;
2944;SDS011;1482;51.398;7.128;2022-12-22T16:33:44;13.73;;;10.60;;
2944;SDS011;1482;51.398;7.128;2022-12-22T16:36:10;17.87;;;13.50;;
2944;SDS011;1482;51.398;7.128;2022-12-22T16:38:35;16.07;;;11.70;;
2944;SDS011;1482;51.398;7.128;2022-12-22T16:41:01;14.90;;;11.93;;
2944;SDS011;1482;51.398;7.128;2022-12-22T16:43:29;17.13;;;10.37;;
2944;SDS011;1482;51.398;7.128;2022-12-22T16:46:03;19.40;;;12.20;;
2944;SDS011;1482;51.398;7.128;2022-12-22T16:48:34;13.83;;;11.10;;
2944;SDS011;1482;51.398;7.128;2022-12-22T16:51:05;12.73;;;11.03;;
2944;SDS011;1482;51.398;7.128;2022-12-22T16:53:31;19.23;;;12.17;;
2944;SDS011;1482;51.398;7.128;2022-12-22T16:55:57;15.37;;;10.30;;
2944;SDS011;1482;51.398;7.128;2022-12-22T16:58:23;15.53;;;10.53;;
2944;SDS011;1482;51.398;7.128;2022-12-22T17:00:49;15.43;;;11.90;;
2944;SDS011;1482;51.398;7.128;2022-12-22T17:03:17;16.63;;;11.10;;
2944;SDS011;1482;51.398;7.128;2022-12-22T17:05:50;13.43;;;10.43;;
2944;SDS011;1482;51.398;7.128;2022-12-22T17:08:21;12.93;;;9.77;;
2944;SDS011;1482;51.398;7.128;2022-12-22T17:10:49;12.23;;;10.90;;
2944;SDS011;1482;51.398;7.128;2022-12-22T17:13:17;12.50;;;9.13;;
2944;SDS011;1482;51.398;7.128;2022-12-22T17:15:44;13.43;;;10.07;;
2944;SDS011;1482;51.398;7.128;2022-12-22T17:18:17;10.10;;;8.40;;
2944;SDS011;1482;51.398;7.128;2022-12-22T17:20:44;15.87;;;10.27;;
2944;SDS011;1482;51.398;7.128;2022-12-22T17:25:49;11.70;;;9.67;;
2944;SDS011;1482;51.398;7.128;2022-12-22T17:28:15;11.67;;;9.47;;
2944;SDS011;1482;51.398;7.128;2022-12-22T17:30:41;11.80;;;9.87;;
2944;SDS011;1482;51.398;7.128;2022-12-22T17:33:11;12.10;;;10.37;;